Terminal Aerodrome Forecast
Issued by NWS

Home | Current Version | Previous Version | Text Only | Print | Product List | Glossary On
Versions: 1 2 3 4 5 6 7 8 9 10 11 12 13 14 15 16 17
000
FTUS45 KLKN 190758 AAB
TAFWMC
TAF AMD
KWMC 190758Z 1908/2006 32010KT 6SM -SN FEW010 OVC035
      TEMPO 1908/1912 1/2SM SN BKN010 OVC030
     FM191200 31010KT 3SM -SN SCT015 OVC025
     FM191600 30008KT P6SM -SHRA BKN035 OVC100
     FM200000 34006KT P6SM VCSH BKN050=

USA.gov is the U.S. government's official web portal to all federal, state and local government web resources and services.